Time;durP1;ratioP1;P1;durP2;ratioP2;P2;SDS_P1;SDS_P2;PMS_P1;PMS_P2;Temp;Humidity;BMP_temperature;BMP_pressure;BME280_temperature;BME280_humidity;BME280_pressure;Samples;Min_cycle;Max_cycle;Signal;HPM_P1;HPM_P2
2022/10/18 00:01:50;;;;;;;7.90;3.38;;;15.60;91.90;;;;;;5093382;28;20051;-47
2022/10/18 00:04:15;;;;;;;5.57;3.20;;;15.50;92.10;;;;;;5093658;28;20021;-51
2022/10/18 00:06:41;;;;;;;6.72;3.72;;;15.50;92.30;;;;;;5093585;28;20032;-50
2022/10/18 00:09:07;;;;;;;6.13;3.97;;;15.40;92.50;;;;;;5092256;28;20106;-48
2022/10/18 00:11:33;;;;;;;5.43;4.05;;;15.60;92.60;;;;;;5094108;28;20467;-48
2022/10/18 00:13:58;;;;;;;7.93;4.28;;;15.60;92.50;;;;;;5093014;28;20020;-47
2022/10/18 00:16:24;;;;;;;8.23;3.90;;;15.60;92.40;;;;;;5093372;28;20024;-48
2022/10/18 00:18:51;;;;;;;6.38;3.92;;;15.60;92.40;;;;;;5093195;28;20073;-49
2022/10/18 00:21:19;;;;;;;9.13;4.20;;;15.60;92.50;;;;;;5093140;28;20016;-50
2022/10/18 00:23:46;;;;;;;5.15;3.70;;;15.60;92.50;;;;;;5092942;28;20034;-51
2022/10/18 00:26:24;;;;;;;8.77;3.90;;;15.50;92.50;;;;;;5093245;28;20487;-48
2022/10/18 00:28:53;;;;;;;5.95;3.20;;;15.50;92.60;;;;;;5092857;28;20020;-48
2022/10/18 00:31:23;;;;;;;5.20;3.33;;;15.50;92.70;;;;;;5093126;28;20035;-49
2022/10/18 00:33:54;;;;;;;6.63;3.47;;;15.50;92.70;;;;;;5092515;28;20123;-48
2022/10/18 00:36:21;;;;;;;8.10;3.90;;;15.40;92.80;;;;;;5093104;28;20024;-48
2022/10/18 00:38:47;;;;;;;5.65;3.30;;;15.50;92.90;;;;;;5092691;28;20549;-48
2022/10/18 00:41:20;;;;;;;9.57;4.05;;;15.40;92.90;;;;;;5092095;28;20058;-49
2022/10/18 00:43:53;;;;;;;9.43;4.95;;;15.40;92.90;;;;;;5093120;28;20080;-50
2022/10/18 00:46:19;;;;;;;5.57;4.15;;;15.50;92.90;;;;;;5092766;28;20055;-48
2022/10/18 00:48:45;;;;;;;7.63;4.28;;;15.50;92.90;;;;;;5092901;28;20028;-47
2022/10/18 00:51:11;;;;;;;7.00;5.07;;;15.50;93.00;;;;;;5092929;28;20443;-47
2022/10/18 00:53:37;;;;;;;8.30;4.28;;;15.60;92.90;;;;;;5092874;28;20033;-48
2022/10/18 00:56:03;;;;;;;10.68;4.25;;;15.50;92.90;;;;;;5094912;28;20145;-47
2022/10/18 00:58:29;;;;;;;9.07;4.88;;;15.50;92.90;;;;;;5096904;28;20035;-47
2022/10/18 01:00:54;;;;;;;7.38;4.45;;;15.50;93.00;;;;;;5096710;28;20020;-48
2022/10/18 01:04:12;;;;;;;7.25;4.07;;;15.50;93.00;;;;;;5096638;28;20525;-48
2022/10/18 01:06:49;;;;;;;8.27;4.10;;;15.50;93.00;;;;;;5096785;28;20027;-49
2022/10/18 01:09:44;;;;;;;9.88;4.82;;;15.50;93.10;;;;;;5096834;28;20031;-50
2022/10/18 01:12:50;;;;;;;6.55;4.20;;;15.50;93.10;;;;;;5097039;28;20016;-48
2022/10/18 01:15:29;;;;;;;8.00;4.53;;;15.50;93.10;;;;;;5096466;28;20119;-50
2022/10/18 01:18:17;;;;;;;10.68;5.22;;;15.50;93.20;;;;;;5096326;28;20036;-48
2022/10/18 01:20:55;;;;;;;6.57;4.07;;;15.50;93.20;;;;;;5096503;28;20047;-47
2022/10/18 01:23:58;;;;;;;7.13;4.57;;;15.40;93.20;;;;;;5096888;28;20486;-48
2022/10/18 01:26:35;;;;;;;7.00;4.57;;;15.50;93.20;;;;;;5096380;28;20460;-48
2022/10/18 01:29:24;;;;;;;11.02;4.63;;;15.50;93.40;;;;;;5095170;28;20024;-48
2022/10/18 01:32:00;;;;;;;7.85;5.63;;;15.70;93.20;;;;;;5092468;28;20036;-51
2022/10/18 01:34:28;;;;;;;10.57;5.43;;;15.60;92.90;;;;;;5096136;28;20217;-49
2022/10/18 01:36:56;;;;;;;9.30;4.65;;;15.60;92.60;;;;;;5094723;28;20052;-48
2022/10/18 01:39:37;;;;;;;6.20;4.93;;;15.60;92.90;;;;;;5095855;28;20364;-48
2022/10/18 01:42:07;;;;;;;7.72;4.93;;;15.60;92.70;;;;;;5095968;28;20441;-51
2022/10/18 01:44:33;;;;;;;;;;;15.50;92.60;;;;;;5096419;28;20031;-48
2022/10/18 01:47:00;;;;;;;9.02;5.32;;;15.40;92.80;;;;;;5096173;28;20356;-48
2022/10/18 01:49:26;;;;;;;8.00;4.43;;;15.40;93.00;;;;;;5095761;28;20032;-48
2022/10/18 01:51:52;;;;;;;13.45;7.60;;;15.40;92.90;;;;;;5096473;28;20028;-49
2022/10/18 01:54:33;;;;;;;8.52;5.20;;;15.40;93.00;;;;;;5096494;28;20383;-48
2022/10/18 01:57:08;;;;;;;11.90;5.13;;;15.40;93.00;;;;;;5095865;28;20031;-48
2022/10/18 01:59:55;;;;;;;5.22;4.38;;;15.40;93.10;;;;;;5095719;28;20036;-48
2022/10/18 02:02:48;;;;;;;7.53;4.68;;;15.40;93.10;;;;;;5095568;28;20024;-49
2022/10/18 02:05:28;;;;;;;7.72;5.03;;;15.40;93.10;;;;;;5095697;28;20554;-48
2022/10/18 02:07:58;;;;;;;;;;;15.50;93.20;;;;;;5096346;28;20376;-49
2022/10/18 02:10:31;;;;;;;13.88;5.38;;;15.50;93.20;;;;;;5094652;28;19904;-48
2022/10/18 02:12:58;;;;;;;17.23;5.60;;;15.50;93.20;;;;;;5095839;28;20039;-48
2022/10/18 02:15:38;;;;;;;8.10;5.80;;;15.50;93.10;;;;;;5095506;28;20435;-49
2022/10/18 02:18:09;;;;;;;15.40;6.63;;;15.40;93.20;;;;;;5095727;28;20186;-49
2022/10/18 02:20:37;;;;;;;10.40;4.88;;;15.40;93.30;;;;;;5095610;28;20082;-48
2022/10/18 02:23:09;;;;;;;11.77;4.68;;;15.40;93.30;;;;;;5095346;28;20028;-48
2022/10/18 02:25:35;;;;;;;12.48;5.47;;;15.40;93.30;;;;;;5095360;28;20038;-48
2022/10/18 02:28:02;;;;;;;13.98;5.97;;;15.40;93.30;;;;;;5095346;28;20099;-48
2022/10/18 02:30:40;;;;;;;9.85;4.97;;;15.30;93.40;;;;;;5095213;28;20060;-50
2022/10/18 02:33:16;;;;;;;7.07;5.22;;;15.30;93.40;;;;;;5094767;28;20353;-49
2022/10/18 02:35:51;;;;;;;11.27;5.57;;;15.40;93.50;;;;;;5095033;28;20024;-47
2022/10/18 02:38:19;;;;;;;8.15;5.85;;;15.40;93.50;;;;;;5095183;28;20146;-48
2022/10/18 02:40:45;;;;;;;10.10;5.65;;;15.40;93.50;;;;;;5094784;28;20027;-48
2022/10/18 02:43:13;;;;;;;9.82;5.88;;;15.40;93.50;;;;;;5093532;28;20472;-48
2022/10/18 02:45:38;;;;;;;9.82;5.50;;;15.40;93.50;;;;;;5094642;28;20059;-48
2022/10/18 02:48:04;;;;;;;6.60;4.95;;;15.40;93.50;;;;;;5095172;28;20028;-48
2022/10/18 02:50:30;;;;;;;9.73;6.40;;;15.40;93.50;;;;;;5094582;28;20548;-49
2022/10/18 02:52:55;;;;;;;5.78;4.25;;;15.40;93.50;;;;;;5094662;28;20023;-50
2022/10/18 02:55:21;;;;;;;8.00;5.07;;;15.40;93.50;;;;;;5094444;28;20476;-48
2022/10/18 02:57:46;;;;;;;7.90;5.00;;;15.40;93.50;;;;;;5094457;28;20028;-53
2022/10/18 03:00:13;;;;;;;10.45;5.00;;;15.50;93.50;;;;;;5094658;28;20024;-49
2022/10/18 03:02:38;;;;;;;10.93;5.18;;;15.50;93.50;;;;;;5094421;28;20020;-49
2022/10/18 03:05:04;;;;;;;5.38;4.25;;;15.40;93.40;;;;;;5094303;28;20028;-47
2022/10/18 03:07:29;;;;;;;11.73;5.38;;;15.40;93.40;;;;;;5094326;28;20038;-49
2022/10/18 03:09:55;;;;;;;5.57;4.60;;;15.40;93.40;;;;;;5094760;28;20432;-47
2022/10/18 03:12:21;;;;;;;7.40;4.97;;;15.40;93.40;;;;;;5094198;28;20063;-49
2022/10/18 03:14:47;;;;;;;10.90;5.07;;;15.40;93.40;;;;;;5094286;28;20024;-51
2022/10/18 03:17:13;;;;;;;8.75;5.22;;;15.40;93.50;;;;;;5093954;28;20046;-47
2022/10/18 03:19:38;;;;;;;7.07;5.53;;;15.40;93.50;;;;;;5093819;28;20129;-47
2022/10/18 03:22:04;;;;;;;10.82;6.60;;;15.50;93.50;;;;;;5094113;28;20435;-46
2022/10/18 03:24:30;;;;;;;7.28;5.30;;;15.40;93.50;;;;;;5094628;28;20082;-48
2022/10/18 03:26:55;;;;;;;8.95;5.00;;;15.50;93.60;;;;;;5094382;28;20023;-47
2022/10/18 03:29:21;;;;;;;9.18;5.25;;;15.50;93.60;;;;;;5093684;28;20028;-47
2022/10/18 03:31:47;;;;;;;9.48;5.22;;;15.50;93.60;;;;;;5094320;28;20032;-49
2022/10/18 03:34:12;;;;;;;8.48;6.10;;;15.50;93.60;;;;;;5093973;28;20040;-48
2022/10/18 03:36:40;;;;;;;7.63;5.10;;;15.40;93.60;;;;;;5094099;28;20027;-48
2022/10/18 03:39:06;;;;;;;10.82;5.30;;;15.40;93.60;;;;;;5093945;28;20042;-48
2022/10/18 03:41:31;;;;;;;9.65;5.78;;;15.40;93.60;;;;;;5092424;28;20027;-51
2022/10/18 03:43:57;;;;;;;10.30;5.53;;;15.40;93.70;;;;;;5094153;28;20032;-47
2022/10/18 03:46:22;;;;;;;6.57;4.60;;;15.40;93.70;;;;;;5092936;28;20118;-50
2022/10/18 03:48:48;;;;;;;11.52;5.95;;;15.30;93.70;;;;;;5094018;28;20069;-49
2022/10/18 03:51:14;;;;;;;11.90;5.55;;;15.30;93.90;;;;;;5093826;28;20032;-48
2022/10/18 03:53:39;;;;;;;9.88;5.95;;;15.40;93.80;;;;;;5093815;28;20036;-50
2022/10/18 03:56:05;;;;;;;10.65;7.00;;;15.30;93.90;;;;;;5093750;28;20043;-48
2022/10/18 03:58:31;;;;;;;11.95;7.88;;;15.40;93.90;;;;;;5093634;28;20024;-49
2022/10/18 04:00:56;;;;;;;9.35;6.63;;;15.40;93.90;;;;;;5093710;28;20024;-48
2022/10/18 04:03:22;;;;;;;18.42;8.45;;;15.40;94.00;;;;;;5093924;28;20048;-49
2022/10/18 04:05:48;;;;;;;15.35;7.35;;;15.30;93.90;;;;;;5094030;28;20111;-48
2022/10/18 04:08:14;;;;;;;9.85;5.97;;;15.30;93.90;;;;;;5093786;28;20028;-49
2022/10/18 04:10:40;;;;;;;13.98;6.45;;;15.30;94.00;;;;;;5093881;28;20138;-49
2022/10/18 04:13:06;;;;;;;11.82;6.88;;;15.20;94.00;;;;;;5093401;28;20054;-47
2022/10/18 04:15:32;;;;;;;9.85;5.95;;;15.20;94.10;;;;;;5093274;28;20536;-49
2022/10/18 04:17:58;;;;;;;13.60;6.85;;;15.20;94.10;;;;;;5093334;28;20024;-49
2022/10/18 04:20:24;;;;;;;12.77;7.03;;;15.20;94.20;;;;;;5093112;28;20016;-48
2022/10/18 04:22:50;;;;;;;13.38;6.75;;;15.30;94.30;;;;;;5093068;28;20131;-49
2022/10/18 04:25:16;;;;;;;9.55;5.97;;;15.20;94.20;;;;;;5091812;28;20028;-51
2022/10/18 04:27:42;;;;;;;8.77;5.95;;;15.30;94.40;;;;;;5093412;28;20479;-48
2022/10/18 04:30:09;;;;;;;11.07;6.72;;;15.20;94.20;;;;;;5092860;28;20032;-48
2022/10/18 04:32:34;;;;;;;12.75;6.85;;;15.20;94.30;;;;;;5093018;28;20028;-48
2022/10/18 04:35:02;;;;;;;17.17;8.30;;;15.20;94.40;;;;;;5092990;28;20502;-48
2022/10/18 04:37:28;;;;;;;10.93;6.38;;;15.20;94.40;;;;;;5093343;28;20028;-48
2022/10/18 04:39:53;;;;;;;10.45;7.18;;;15.20;94.50;;;;;;5092905;28;20031;-49
2022/10/18 04:42:20;;;;;;;10.20;7.20;;;15.20;94.50;;;;;;5092764;28;20384;-48
2022/10/18 04:44:45;;;;;;;15.10;6.65;;;15.20;94.50;;;;;;5092793;28;20099;-49
2022/10/18 04:47:11;;;;;;;14.45;7.00;;;15.20;94.50;;;;;;5092822;28;20439;-48
2022/10/18 04:49:37;;;;;;;16.27;6.97;;;15.20;94.60;;;;;;5093478;28;20436;-49
2022/10/18 04:52:03;;;;;;;13.00;6.45;;;15.20;94.60;;;;;;5093708;28;20024;-48
2022/10/18 04:54:28;;;;;;;12.57;7.05;;;15.10;94.60;;;;;;5092664;28;20024;-49
2022/10/18 04:56:54;;;;;;;9.82;7.05;;;15.20;94.60;;;;;;5092801;28;20482;-48
2022/10/18 04:59:20;;;;;;;10.55;6.63;;;15.10;94.60;;;;;;5091748;28;20032;-47
2022/10/18 05:01:45;;;;;;;13.32;7.43;;;15.10;94.60;;;;;;5093206;28;20361;-48
2022/10/18 05:04:11;;;;;;;12.60;8.23;;;15.10;94.70;;;;;;5092778;28;20102;-48
2022/10/18 05:06:37;;;;;;;16.17;8.70;;;15.10;94.70;;;;;;5092396;28;20031;-47
2022/10/18 05:09:04;;;;;;;18.25;8.40;;;15.10;94.80;;;;;;5092578;28;20024;-47
2022/10/18 05:11:29;;;;;;;12.30;8.15;;;15.20;94.80;;;;;;5090963;28;20020;-47
2022/10/18 05:13:55;;;;;;;14.10;9.25;;;15.20;94.80;;;;;;5091425;28;20024;-48
2022/10/18 05:16:21;;;;;;;14.15;7.40;;;15.20;94.80;;;;;;5092523;28;20476;-50
2022/10/18 05:18:46;;;;;;;12.65;7.97;;;15.20;94.80;;;;;;5092547;28;20020;-52
2022/10/18 05:21:12;;;;;;;11.45;8.02;;;15.20;94.80;;;;;;5092543;28;20025;-49
2022/10/18 05:23:38;;;;;;;14.95;7.85;;;15.20;94.80;;;;;;5092441;28;20024;-48
2022/10/18 05:26:05;;;;;;;17.45;8.80;;;15.20;94.80;;;;;;5092380;28;20533;-48
2022/10/18 05:28:31;;;;;;;16.10;9.63;;;15.30;94.70;;;;;;5092419;28;20085;-48
2022/10/18 05:31:02;;;;;;;14.07;8.25;;;15.30;94.80;;;;;;5092412;28;20099;-49
2022/10/18 05:33:28;;;;;;;17.30;9.32;;;15.30;94.70;;;;;;5092247;28;20051;-47
2022/10/18 05:35:53;;;;;;;14.85;8.10;;;15.30;94.70;;;;;;5091130;28;20055;-50
2022/10/18 05:38:19;;;;;;;16.85;9.50;;;15.30;94.70;;;;;;5092662;28;20405;-47
2022/10/18 05:40:45;;;;;;;17.77;8.88;;;15.30;94.70;;;;;;5092166;28;20027;-47
2022/10/18 05:43:11;;;;;;;13.10;8.70;;;15.20;94.70;;;;;;5095894;28;20028;-48
2022/10/18 05:45:36;;;;;;;14.48;8.82;;;15.20;94.70;;;;;;5095857;28;20024;-47
2022/10/18 05:48:03;;;;;;;18.75;9.52;;;15.30;94.70;;;;;;5095865;28;20032;-49
2022/10/18 05:50:29;;;;;;;17.20;8.70;;;15.30;94.80;;;;;;5095750;28;20054;-51
2022/10/18 05:52:56;;;;;;;22.25;9.88;;;15.30;94.70;;;;;;5095945;28;20024;-47
2022/10/18 16:50:39;;;;;;;6.57;1.60;;;14.60;76.30;;;;;;5046096;28;20366;-48
2022/10/18 16:53:05;;;;;;;17.17;1.92;;;14.50;76.70;;;;;;5030485;28;20026;-50
2022/10/18 16:55:30;;;;;;;7.93;2.13;;;14.50;77.10;;;;;;5030269;28;20018;-50
2022/10/18 16:57:56;;;;;;;9.07;2.10;;;14.50;77.70;;;;;;5030297;28;20076;-48
2022/10/18 17:00:22;;;;;;;6.55;3.08;;;14.40;78.00;;;;;;5030061;28;20040;-49
2022/10/18 17:02:48;;;;;;;10.35;4.22;;;14.40;78.30;;;;;;5028433;28;20026;-49
2022/10/18 17:05:17;;;;;;;23.73;4.95;;;14.30;78.80;;;;;;5030127;28;20036;-48
2022/10/18 17:07:43;;;;;;;9.93;4.32;;;14.30;79.10;;;;;;5029868;28;20025;-49
2022/10/18 17:10:14;;;;;;;8.25;3.53;;;14.30;79.60;;;;;;5029674;28;20022;-47
2022/10/18 17:12:40;;;;;;;8.80;5.13;;;14.20;80.00;;;;;;5030061;28;20532;-48
2022/10/18 17:15:07;;;;;;;17.70;3.75;;;14.20;80.30;;;;;;5030029;28;20018;-48
2022/10/18 17:17:33;;;;;;;6.40;2.05;;;14.10;80.40;;;;;;5029929;28;20050;-47
2022/10/18 17:19:59;;;;;;;7.35;2.20;;;14.00;80.70;;;;;;5028610;28;20030;-47
2022/10/18 17:22:25;;;;;;;6.75;2.75;;;13.90;80.80;;;;;;5029843;28;20049;-47
2022/10/18 17:24:51;;;;;;;21.02;4.18;;;13.80;80.90;;;;;;5030264;28;20026;-48
2022/10/18 17:27:17;;;;;;;8.88;2.83;;;13.70;81.10;;;;;;5030131;28;20037;-47
2022/10/18 17:29:43;;;;;;;10.15;3.42;;;13.70;81.40;;;;;;5028289;28;20094;-49
2022/10/18 17:32:09;;;;;;;10.40;2.78;;;13.70;81.50;;;;;;5029698;28;20053;-48
2022/10/18 17:34:37;;;;;;;7.47;2.92;;;13.60;81.90;;;;;;5029787;28;20030;-48
2022/10/18 17:37:06;;;;;;;11.88;3.00;;;13.60;82.40;;;;;;5029450;28;20025;-51
2022/10/18 17:39:32;;;;;;;9.75;4.25;;;13.50;82.60;;;;;;5029351;28;20077;-48
2022/10/18 17:41:58;;;;;;;10.48;3.47;;;13.50;82.90;;;;;;5029586;28;20087;-50
2022/10/18 17:44:24;;;;;;;10.18;3.10;;;13.40;83.20;;;;;;5029526;28;20026;-50
2022/10/18 17:46:50;;;;;;;7.60;3.25;;;13.40;83.50;;;;;;5029307;28;20104;-47
2022/10/18 17:49:16;;;;;;;11.40;4.65;;;13.30;83.40;;;;;;5037791;28;20121;-48
2022/10/18 17:51:44;;;;;;;15.65;5.43;;;13.30;83.80;;;;;;5049004;28;20036;-47
2022/10/18 17:54:10;;;;;;;8.80;4.43;;;13.30;84.10;;;;;;5049552;28;20095;-52
2022/10/18 17:56:38;;;;;;;11.82;4.95;;;13.30;84.20;;;;;;5049877;28;20108;-50
2022/10/18 17:59:04;;;;;;;14.02;5.45;;;13.30;84.20;;;;;;5049445;28;20318;-51
2022/10/18 18:01:33;;;;;;;19.30;5.60;;;13.30;84.10;;;;;;5037888;28;20025;-50
2022/10/18 18:04:00;;;;;;;10.57;5.88;;;13.20;84.00;;;;;;5036090;28;20018;-48
2022/10/18 18:06:32;;;;;;;13.40;5.40;;;13.20;83.90;;;;;;5035746;28;20334;-48
2022/10/18 18:09:00;;;;;;;9.93;4.78;;;13.30;83.40;;;;;;5035449;28;20029;-48
2022/10/18 18:11:27;;;;;;;12.20;5.95;;;13.30;83.30;;;;;;5035617;28;20469;-47
2022/10/18 18:13:54;;;;;;;11.18;4.88;;;13.20;83.60;;;;;;5034742;28;20466;-49
2022/10/18 18:16:23;;;;;;;14.88;6.60;;;13.10;83.70;;;;;;5037670;28;20041;-49
2022/10/18 18:18:53;;;;;;;16.65;5.63;;;13.00;83.70;;;;;;5038534;28;20044;-47
2022/10/18 18:21:19;;;;;;;13.38;5.93;;;12.90;83.80;;;;;;5037935;28;20028;-48
2022/10/18 18:23:45;;;;;;;13.55;6.50;;;12.90;84.00;;;;;;5039377;28;20029;-47
2022/10/18 18:26:11;;;;;;;14.85;5.95;;;12.90;84.70;;;;;;5035352;28;20128;-48
2022/10/18 18:28:37;;;;;;;21.38;6.82;;;12.80;84.60;;;;;;5036453;28;20108;-47
2022/10/18 18:31:24;;;;;;;18.75;7.28;;;12.80;84.70;;;;;;5035256;28;20032;-49
2022/10/18 18:33:51;;;;;;;13.90;6.03;;;12.80;84.90;;;;;;5035208;28;20419;-46
2022/10/18 18:36:18;;;;;;;11.10;5.60;;;12.80;85.00;;;;;;5034965;28;20021;-48
2022/10/18 18:38:46;;;;;;;9.73;4.15;;;12.80;84.60;;;;;;5034797;28;20032;-47
2022/10/18 18:41:18;;;;;;;10.30;3.70;;;12.80;83.90;;;;;;5034930;28;20041;-47
2022/10/18 18:43:49;;;;;;;12.13;3.63;;;12.80;82.60;;;;;;5034371;28;20362;-47
2022/10/18 18:46:16;;;;;;;5.35;2.42;;;13.00;81.60;;;;;;5035092;28;20036;-47
2022/10/18 18:48:42;;;;;;;14.57;2.45;;;13.10;80.60;;;;;;5033469;28;20046;-48
2022/10/18 18:51:11;;;;;;;7.57;3.33;;;13.20;79.40;;;;;;5035308;28;20022;-48
2022/10/18 18:53:39;;;;;;;10.50;2.67;;;13.30;79.00;;;;;;5034979;28;20026;-48
2022/10/18 18:56:09;;;;;;;8.10;2.58;;;13.20;79.10;;;;;;5034790;28;20256;-50
2022/10/18 18:58:36;;;;;;;7.47;2.35;;;13.10;79.20;;;;;;5033485;28;20025;-47
2022/10/18 19:01:36;;;;;;;12.07;4.82;;;13.00;79.70;;;;;;5034536;28;20036;-47
2022/10/18 19:04:03;;;;;;;13.60;5.25;;;12.80;81.30;;;;;;5012714;28;20069;-47
2022/10/18 19:06:32;;;;;;;32.85;11.38;;;12.80;82.00;;;;;;5034323;28;20496;-48
2022/10/18 19:09:01;;;;;;;26.05;9.50;;;12.60;82.50;;;;;;5034357;28;20025;-47
2022/10/18 19:11:31;;;;;;;17.98;4.78;;;12.60;83.00;;;;;;5034289;28;20446;-48
2022/10/18 19:13:57;;;;;;;14.18;5.70;;;12.50;83.20;;;;;;5033615;28;20026;-49
2022/10/18 19:16:32;;;;;;;9.68;4.22;;;12.30;83.70;;;;;;5032940;28;20026;-47
2022/10/18 19:19:00;;;;;;;12.32;4.18;;;12.30;83.80;;;;;;5034187;28;20029;-50
2022/10/18 19:21:29;;;;;;;15.13;4.95;;;12.30;83.60;;;;;;5016310;28;20129;-47
2022/10/18 19:23:56;;;;;;;12.45;3.50;;;12.30;83.50;;;;;;5034467;28;20563;-47
2022/10/18 19:26:31;;;;;;;10.35;2.75;;;12.30;83.50;;;;;;5032743;28;20057;-49
2022/10/18 19:29:27;;;;;;;8.23;3.40;;;12.30;83.40;;;;;;5034428;28;20045;-47
2022/10/18 19:31:54;;;;;;;16.10;3.13;;;12.40;82.70;;;;;;5029033;28;20136;-48
2022/10/18 19:34:22;;;;;;;2.88;2.33;;;12.40;81.90;;;;;;5034202;28;20021;-48
2022/10/18 19:36:49;;;;;;;6.28;2.40;;;12.30;81.70;;;;;;5033783;28;20112;-47
2022/10/18 19:39:19;;;;;;;11.35;2.20;;;12.30;81.80;;;;;;5033869;28;20126;-48
2022/10/18 19:41:45;;;;;;;10.88;2.70;;;12.40;81.60;;;;;;5034797;28;20034;-47
2022/10/18 19:44:11;;;;;;;12.35;3.10;;;12.40;81.50;;;;;;5033740;28;20037;-47
2022/10/18 19:46:37;;;;;;;4.03;1.85;;;12.30;81.60;;;;;;5033892;28;20035;-49
2022/10/18 19:49:03;;;;;;;5.10;1.90;;;12.30;81.60;;;;;;5033464;28;20050;-50
2022/10/18 19:51:28;;;;;;;16.70;2.65;;;12.30;81.80;;;;;;5033588;28;20132;-49
2022/10/18 19:53:55;;;;;;;10.63;2.83;;;12.30;81.90;;;;;;5033611;28;20045;-47
2022/10/18 19:56:22;;;;;;;6.43;1.80;;;12.30;81.90;;;;;;5033945;28;20018;-48
2022/10/18 19:58:49;;;;;;;2.83;1.73;;;12.30;81.60;;;;;;5034081;28;20068;-49
2022/10/18 20:01:15;;;;;;;3.40;1.65;;;12.30;81.90;;;;;;5033729;28;20036;-47
2022/10/18 20:03:41;;;;;;;8.85;3.78;;;12.20;82.00;;;;;;5033396;28;20503;-47
2022/10/18 20:06:07;;;;;;;9.57;3.72;;;12.30;82.60;;;;;;5033725;28;20070;-47
2022/10/18 20:08:35;;;;;;;4.53;1.83;;;12.10;82.90;;;;;;5031886;28;20036;-47
2022/10/18 20:11:12;;;;;;;7.00;2.33;;;12.00;82.80;;;;;;5033500;28;20377;-47
2022/10/18 20:13:38;;;;;;;12.80;2.50;;;12.00;82.90;;;;;;5033337;28;20014;-48
2022/10/18 20:16:07;;;;;;;16.40;3.20;;;12.00;82.90;;;;;;5033493;28;20021;-47
2022/10/18 20:18:33;;;;;;;9.27;2.00;;;12.10;82.90;;;;;;5033027;28;20029;-50
2022/10/18 20:20:59;;;;;;;5.00;3.05;;;12.10;82.40;;;;;;5033107;28;20032;-48
2022/10/18 20:23:25;;;;;;;6.88;2.15;;;12.10;82.50;;;;;;5033205;28;20034;-48
2022/10/18 20:25:57;;;;;;;6.63;2.88;;;12.10;82.40;;;;;;5031694;28;20112;-47
2022/10/18 20:28:23;;;;;;;6.68;1.95;;;12.10;82.30;;;;;;5033220;28;20029;-47
2022/10/18 20:31:07;;;;;;;12.45;1.83;;;12.10;82.20;;;;;;5031758;28;20029;-48
2022/10/18 20:33:34;;;;;;;17.40;4.78;;;12.00;82.40;;;;;;5033080;28;20025;-48
2022/10/18 20:36:02;;;;;;;9.20;3.70;;;11.90;82.70;;;;;;5032980;28;20501;-48
2022/10/18 20:38:31;;;;;;;11.13;2.47;;;11.90;83.00;;;;;;5033213;28;20030;-47
2022/10/18 20:41:04;;;;;;;7.60;2.47;;;11.90;83.30;;;;;;5032920;28;20416;-47
2022/10/18 20:43:30;;;;;;;19.00;2.83;;;11.80;83.40;;;;;;5033589;28;20049;-38
2022/10/18 20:45:57;;;;;;;8.13;3.90;;;11.80;83.70;;;;;;5032907;28;20056;-38
2022/10/18 20:48:24;;;;;;;9.20;2.45;;;11.70;84.00;;;;;;5033945;28;20484;-39
2022/10/18 20:50:49;;;;;;;10.77;2.75;;;11.60;84.30;;;;;;5033074;28;20462;-39
2022/10/18 20:53:15;;;;;;;11.88;2.60;;;11.60;84.70;;;;;;5033877;28;20021;-39
2022/10/18 20:55:42;;;;;;;9.48;3.42;;;11.50;84.90;;;;;;5031851;28;20021;-39
2022/10/18 20:58:08;;;;;;;5.18;2.20;;;11.50;85.00;;;;;;5033155;28;20072;-40
2022/10/18 21:00:34;;;;;;;9.48;2.40;;;11.40;85.40;;;;;;5032778;28;20057;-42
2022/10/18 21:03:01;;;;;;;11.65;2.22;;;11.30;85.40;;;;;;5032748;28;20025;-38
2022/10/18 21:05:30;;;;;;;5.32;2.03;;;11.30;85.80;;;;;;5033107;28;20056;-38
2022/10/18 21:07:56;;;;;;;7.30;2.50;;;11.30;86.00;;;;;;5033162;28;20440;-38
2022/10/18 21:10:23;;;;;;;9.65;3.63;;;11.20;86.30;;;;;;5032870;28;20335;-38
2022/10/18 21:12:49;;;;;;;5.40;1.90;;;11.20;86.50;;;;;;5033559;28;20511;-38
2022/10/18 21:15:15;;;;;;;8.15;2.70;;;11.20;86.70;;;;;;5032914;28;20104;-38
2022/10/18 21:17:40;;;;;;;11.70;2.38;;;11.20;86.90;;;;;;5031941;28;20029;-38
2022/10/18 21:20:07;;;;;;;15.32;2.90;;;11.10;86.90;;;;;;5032997;28;20030;-38
2022/10/18 21:22:33;;;;;;;6.72;2.60;;;11.10;86.90;;;;;;5032734;28;20106;-38
2022/10/18 21:24:58;;;;;;;11.75;2.90;;;11.10;86.90;;;;;;5032626;28;20057;-38
2022/10/18 21:27:24;;;;;;;13.15;3.72;;;11.10;87.00;;;;;;5033604;28;20025;-39
2022/10/18 21:29:49;;;;;;;15.30;3.60;;;11.00;87.20;;;;;;5032909;28;20562;-38
2022/10/18 21:32:15;;;;;;;12.15;4.25;;;10.90;87.30;;;;;;5032806;28;20021;-38
2022/10/18 21:34:40;;;;;;;9.70;4.30;;;10.80;87.40;;;;;;5032746;28;20030;-39
2022/10/18 21:37:06;;;;;;;12.65;5.25;;;10.70;87.50;;;;;;5036134;28;20032;-39
2022/10/18 21:39:32;;;;;;;12.65;4.45;;;10.60;87.70;;;;;;5037072;28;20056;-39
2022/10/18 21:41:57;;;;;;;14.20;5.38;;;10.60;87.90;;;;;;5036851;28;20029;-39
2022/10/18 21:44:23;;;;;;;12.10;5.78;;;10.60;88.00;;;;;;5036843;28;20554;-39
2022/10/18 21:46:49;;;;;;;12.30;3.10;;;10.60;88.10;;;;;;5036498;28;20026;-39
2022/10/18 21:49:15;;;;;;;13.32;4.80;;;10.40;88.10;;;;;;5036895;28;20128;-39
2022/10/18 21:51:41;;;;;;;23.33;5.18;;;10.50;88.60;;;;;;5037629;28;20076;-39
2022/10/18 21:54:11;;;;;;;12.00;5.50;;;10.50;88.50;;;;;;5037553;28;20045;-38
2022/10/18 21:56:36;;;;;;;12.90;5.78;;;10.30;88.40;;;;;;5037453;28;20032;-38
2022/10/18 21:59:03;;;;;;;8.63;4.53;;;10.30;88.60;;;;;;5036242;28;20104;-39
2022/10/18 22:01:31;;;;;;;11.07;5.38;;;10.20;88.60;;;;;;5034714;28;20033;-38
2022/10/18 22:03:58;;;;;;;20.02;6.00;;;10.00;88.80;;;;;;5035395;28;20037;-38
2022/10/18 22:06:25;;;;;;;14.43;5.43;;;9.90;89.00;;;;;;5035635;28;20021;-38
2022/10/18 22:08:57;;;;;;;14.35;4.70;;;9.80;89.30;;;;;;5035599;28;20030;-38
2022/10/18 22:11:29;;;;;;;11.43;4.85;;;9.80;89.50;;;;;;5035757;28;20029;-38
2022/10/18 22:13:55;;;;;;;9.95;4.03;;;9.80;89.70;;;;;;5035891;28;20018;-38
2022/10/18 22:16:21;;;;;;;22.52;6.05;;;9.70;89.90;;;;;;5034900;28;20028;-38
2022/10/18 22:18:48;;;;;;;20.80;5.93;;;9.80;89.90;;;;;;5034273;28;20076;-38
2022/10/18 22:21:16;;;;;;;11.88;5.32;;;9.70;89.90;;;;;;5035852;28;20076;-38
2022/10/18 22:23:47;;;;;;;6.82;3.70;;;9.60;89.90;;;;;;5035709;28;20033;-38
2022/10/18 22:26:17;;;;;;;12.57;4.35;;;9.50;90.10;;;;;;5034073;28;20166;-38
2022/10/18 22:28:44;;;;;;;12.40;5.07;;;9.50;90.20;;;;;;5035567;28;20381;-42
2022/10/18 22:31:18;;;;;;;13.95;4.47;;;9.50;90.40;;;;;;5035404;28;20481;-40
2022/10/18 22:33:44;;;;;;;11.68;5.03;;;9.50;90.40;;;;;;5034234;28;20362;-39
2022/10/18 22:36:13;;;;;;;22.70;7.90;;;9.40;90.50;;;;;;5035627;28;20071;-38
2022/10/18 22:38:39;;;;;;;15.25;6.25;;;9.40;90.60;;;;;;5035539;28;20358;-39
2022/10/18 22:41:09;;;;;;;10.05;4.72;;;9.40;90.60;;;;;;5035171;28;20084;-38
2022/10/18 22:43:35;;;;;;;17.20;5.22;;;9.30;90.60;;;;;;5035226;28;20049;-38
2022/10/18 22:46:04;;;;;;;10.90;4.90;;;9.30;90.60;;;;;;5035166;28;20524;-37
2022/10/18 22:48:33;;;;;;;11.88;6.13;;;9.30;90.60;;;;;;5035008;28;20076;-39
2022/10/18 22:50:59;;;;;;;19.17;5.18;;;9.20;90.70;;;;;;5035382;28;20022;-38
2022/10/18 22:53:25;;;;;;;12.45;6.30;;;9.20;90.90;;;;;;5035002;28;20385;-39
2022/10/18 22:55:51;;;;;;;14.05;5.28;;;9.20;90.90;;;;;;5035115;28;20109;-38
2022/10/18 22:58:17;;;;;;;19.40;4.90;;;9.20;90.90;;;;;;5033555;28;20088;-38
2022/10/18 23:00:43;;;;;;;10.00;5.30;;;9.20;90.90;;;;;;5034914;28;20108;-39
2022/10/18 23:03:09;;;;;;;11.82;5.75;;;9.10;91.00;;;;;;5033423;28;20061;-39
2022/10/18 23:05:42;;;;;;;13.43;7.57;;;9.10;91.00;;;;;;5033356;28;20064;-38
2022/10/18 23:08:10;;;;;;;15.85;6.30;;;9.10;91.00;;;;;;5034679;28;20021;-37
2022/10/18 23:10:37;;;;;;;25.10;6.38;;;9.10;91.10;;;;;;5034424;28;20029;-38
2022/10/18 23:13:04;;;;;;;14.05;4.63;;;9.10;91.20;;;;;;5034370;28;20056;-38
2022/10/18 23:15:30;;;;;;;18.88;5.78;;;9.10;91.20;;;;;;5033083;28;20067;-38
2022/10/18 23:17:59;;;;;;;11.85;4.35;;;9.10;91.20;;;;;;5034507;28;20032;-37
2022/10/18 23:20:25;;;;;;;11.98;5.07;;;9.10;91.20;;;;;;5034298;28;20036;-37
2022/10/18 23:22:50;;;;;;;13.32;5.28;;;9.10;91.30;;;;;;5034135;28;20104;-38
2022/10/18 23:25:16;;;;;;;13.85;4.85;;;9.10;91.30;;;;;;5034108;28;20110;-44
2022/10/18 23:27:42;;;;;;;11.43;4.10;;;9.10;91.30;;;;;;5034352;28;20559;-38
2022/10/18 23:30:08;;;;;;;7.57;3.55;;;9.00;91.40;;;;;;5034370;28;20040;-39
2022/10/18 23:32:34;;;;;;;10.77;4.63;;;9.00;91.40;;;;;;5034303;28;20025;-39
2022/10/18 23:35:00;;;;;;;17.20;5.05;;;9.00;91.50;;;;;;5034392;28;20021;-38
2022/10/18 23:37:25;;;;;;;7.80;4.53;;;9.00;91.50;;;;;;5034701;28;20021;-38
2022/10/18 23:39:51;;;;;;;12.75;4.75;;;9.00;91.60;;;;;;5034129;28;20057;-38
2022/10/18 23:42:16;;;;;;;8.95;4.25;;;8.90;91.50;;;;;;5034404;28;20040;-39
2022/10/18 23:44:42;;;;;;;11.52;4.15;;;8.80;91.50;;;;;;5032730;28;20029;-38